sensor_id;sensor_type;location;lat;lon;timestamp;pressure;altitude;pressure_sealevel;temperature;humidity
71465;BME280;59274;49.874;9.154;2022-11-20T00:01:19;100027.69;;;2.06;100.00
71465;BME280;59274;49.874;9.154;2022-11-20T00:03:44;100026.28;;;2.09;100.00
71465;BME280;59274;49.874;9.154;2022-11-20T00:06:13;100014.28;;;2.15;100.00
71465;BME280;59274;49.874;9.154;2022-11-20T00:08:39;100004.88;;;2.09;100.00
71465;BME280;59274;49.874;9.154;2022-11-20T00:11:06;99996.97;;;2.12;100.00
71465;BME280;59274;49.874;9.154;2022-11-20T00:13:33;100002.28;;;2.21;100.00
71465;BME280;59274;49.874;9.154;2022-11-20T00:15:59;100002.94;;;2.18;100.00
71465;BME280;59274;49.874;9.154;2022-11-20T00:18:25;100004.53;;;2.10;100.00
71465;BME280;59274;49.874;9.154;2022-11-20T00:20:51;100002.69;;;2.02;100.00
71465;BME280;59274;49.874;9.154;2022-11-20T00:23:16;100006.13;;;2.11;100.00
71465;BME280;59274;49.874;9.154;2022-11-20T00:25:42;99994.94;;;2.09;100.00
71465;BME280;59274;49.874;9.154;2022-11-20T00:28:07;99997.78;;;2.13;100.00
71465;BME280;59274;49.874;9.154;2022-11-20T00:30:33;99991.47;;;2.09;100.00
71465;BME280;59274;49.874;9.154;2022-11-20T00:32:58;99989.91;;;2.08;100.00
71465;BME280;59274;49.874;9.154;2022-11-20T00:35:24;99988.47;;;2.10;100.00
71465;BME280;59274;49.874;9.154;2022-11-20T00:37:49;99984.81;;;2.15;100.00
71465;BME280;59274;49.874;9.154;2022-11-20T00:40:15;99998.13;;;2.03;100.00
71465;BME280;59274;49.874;9.154;2022-11-20T00:42:40;99992.75;;;2.03;100.00
71465;BME280;59274;49.874;9.154;2022-11-20T00:45:06;99995.91;;;2.05;100.00
71465;BME280;59274;49.874;9.154;2022-11-20T00:47:32;99988.00;;;2.08;100.00
71465;BME280;59274;49.874;9.154;2022-11-20T00:49:57;99992.72;;;2.11;100.00
71465;BME280;59274;49.874;9.154;2022-11-20T00:52:23;99991.16;;;2.10;100.00
71465;BME280;59274;49.874;9.154;2022-11-20T00:54:48;99991.94;;;2.11;100.00
71465;BME280;59274;49.874;9.154;2022-11-20T00:57:14;99988.75;;;2.17;100.00
71465;BME280;59274;49.874;9.154;2022-11-20T00:59:39;99977.28;;;2.08;100.00
71465;BME280;59274;49.874;9.154;2022-11-20T01:02:04;99987.69;;;2.10;100.00
71465;BME280;59274;49.874;9.154;2022-11-20T01:04:30;99979.38;;;2.03;100.00
71465;BME280;59274;49.874;9.154;2022-11-20T01:06:55;99992.56;;;2.08;100.00
71465;BME280;59274;49.874;9.154;2022-11-20T01:09:21;99989.25;;;2.11;100.00
71465;BME280;59274;49.874;9.154;2022-11-20T01:11:46;99993.53;;;2.12;100.00
71465;BME280;59274;49.874;9.154;2022-11-20T01:14:17;99990.97;;;2.15;100.00
71465;BME280;59274;49.874;9.154;2022-11-20T01:16:46;99987.06;;;2.13;100.00
71465;BME280;59274;49.874;9.154;2022-11-20T01:19:15;99997.50;;;2.06;100.00
71465;BME280;59274;49.874;9.154;2022-11-20T01:21:43;99997.00;;;2.04;100.00
71465;BME280;59274;49.874;9.154;2022-11-20T01:24:13;99998.13;;;2.03;100.00
71465;BME280;59274;49.874;9.154;2022-11-20T01:26:41;99992.41;;;2.13;100.00
71465;BME280;59274;49.874;9.154;2022-11-20T01:29:12;99991.97;;;2.02;100.00
71465;BME280;59274;49.874;9.154;2022-11-20T01:31:41;99992.16;;;1.97;100.00
71465;BME280;59274;49.874;9.154;2022-11-20T01:34:11;99989.50;;;1.88;100.00
71465;BME280;59274;49.874;9.154;2022-11-20T01:36:37;99987.63;;;1.80;100.00
71465;BME280;59274;49.874;9.154;2022-11-20T01:39:06;99988.00;;;1.70;100.00
71465;BME280;59274;49.874;9.154;2022-11-20T01:41:33;99972.22;;;1.77;100.00
71465;BME280;59274;49.874;9.154;2022-11-20T01:44:20;99972.66;;;1.88;100.00
71465;BME280;59274;49.874;9.154;2022-11-20T01:46:54;99984.47;;;1.87;100.00
71465;BME280;59274;49.874;9.154;2022-11-20T01:49:34;99981.66;;;1.83;100.00
71465;BME280;59274;49.874;9.154;2022-11-20T01:52:11;99975.00;;;1.89;100.00
71465;BME280;59274;49.874;9.154;2022-11-20T01:54:43;99973.91;;;1.90;100.00
71465;BME280;59274;49.874;9.154;2022-11-20T01:57:10;99973.09;;;1.99;100.00
71465;BME280;59274;49.874;9.154;2022-11-20T01:59:41;99973.72;;;1.95;100.00
71465;BME280;59274;49.874;9.154;2022-11-20T02:02:10;99968.38;;;1.95;100.00
71465;BME280;59274;49.874;9.154;2022-11-20T02:04:35;99972.31;;;1.98;100.00
71465;BME280;59274;49.874;9.154;2022-11-20T02:07:02;99975.31;;;1.96;100.00
71465;BME280;59274;49.874;9.154;2022-11-20T02:09:29;99972.31;;;1.98;100.00
71465;BME280;59274;49.874;9.154;2022-11-20T02:11:55;99978.59;;;1.93;100.00
71465;BME280;59274;49.874;9.154;2022-11-20T02:14:22;99971.84;;;1.87;100.00
71465;BME280;59274;49.874;9.154;2022-11-20T02:16:49;99976.00;;;1.76;100.00
71465;BME280;59274;49.874;9.154;2022-11-20T02:19:33;99975.03;;;1.81;100.00
71465;BME280;59274;49.874;9.154;2022-11-20T02:22:29;99970.47;;;1.81;100.00
71465;BME280;59274;49.874;9.154;2022-11-20T02:24:59;99973.91;;;1.90;100.00
71465;BME280;59274;49.874;9.154;2022-11-20T02:27:26;99969.34;;;1.91;100.00
71465;BME280;59274;49.874;9.154;2022-11-20T02:29:56;99973.91;;;1.90;100.00
71465;BME280;59274;49.874;9.154;2022-11-20T02:34:50;99964.59;;;1.96;100.00
71465;BME280;59274;49.874;9.154;2022-11-20T02:37:15;99958.28;;;1.92;100.00
71465;BME280;59274;49.874;9.154;2022-11-20T02:39:42;99954.81;;;1.92;100.00
71465;BME280;59274;49.874;9.154;2022-11-20T02:42:09;99962.22;;;1.95;100.00
71465;BME280;59274;49.874;9.154;2022-11-20T02:44:34;99963.50;;;1.98;100.00
71465;BME280;59274;49.874;9.154;2022-11-20T02:47:00;99954.97;;;1.95;100.00
71465;BME280;59274;49.874;9.154;2022-11-20T02:49:25;99962.03;;;2.00;100.00
71465;BME280;59274;49.874;9.154;2022-11-20T02:51:51;99955.91;;;2.00;100.00
71465;BME280;59274;49.874;9.154;2022-11-20T02:54:16;99956.69;;;2.00;100.00
71465;BME280;59274;49.874;9.154;2022-11-20T02:56:42;99949.63;;;1.95;100.00
71465;BME280;59274;49.874;9.154;2022-11-20T02:59:08;99950.25;;;1.92;100.00
71465;BME280;59274;49.874;9.154;2022-11-20T03:01:34;99942.22;;;1.92;100.00
71465;BME280;59274;49.874;9.154;2022-11-20T03:03:59;99942.66;;;2.03;100.00
71465;BME280;59274;49.874;9.154;2022-11-20T03:06:25;99944.56;;;2.03;100.00
71465;BME280;59274;49.874;9.154;2022-11-20T03:08:50;99943.56;;;2.07;100.00
71465;BME280;59274;49.874;9.154;2022-11-20T03:11:16;99945.47;;;2.07;100.00
71465;BME280;59274;49.874;9.154;2022-11-20T03:13:42;99952.41;;;2.08;100.00
71465;BME280;59274;49.874;9.154;2022-11-20T03:16:15;99955.25;;;2.11;100.00
71465;BME280;59274;49.874;9.154;2022-11-20T03:18:41;99947.03;;;2.08;100.00
71465;BME280;59274;49.874;9.154;2022-11-20T03:21:08;99942.25;;;2.22;100.00
71465;BME280;59274;49.874;9.154;2022-11-20T03:23:34;99943.53;;;2.16;100.00
71465;BME280;59274;49.874;9.154;2022-11-20T03:28:40;99947.00;;;2.16;100.00
71465;BME280;59274;49.874;9.154;2022-11-20T03:31:13;99943.50;;;2.24;100.00
71465;BME280;59274;49.874;9.154;2022-11-20T03:33:40;99941.66;;;2.16;100.00
71465;BME280;59274;49.874;9.154;2022-11-20T03:36:08;99939.59;;;2.13;100.00
71465;BME280;59274;49.874;9.154;2022-11-20T03:38:34;99931.94;;;2.03;100.00
71465;BME280;59274;49.874;9.154;2022-11-20T03:41:01;99925.91;;;2.15;100.00
71465;BME280;59274;49.874;9.154;2022-11-20T03:43:27;99934.13;;;2.10;100.00
71465;BME280;59274;49.874;9.154;2022-11-20T03:45:53;99931.44;;;2.10;100.00
71465;BME280;59274;49.874;9.154;2022-11-20T03:48:19;99936.94;;;2.13;100.00
71465;BME280;59274;49.874;9.154;2022-11-20T03:50:44;99940.81;;;2.24;100.00
71465;BME280;59274;49.874;9.154;2022-11-20T03:53:12;99935.66;;;2.19;100.00
71465;BME280;59274;49.874;9.154;2022-11-20T03:55:38;99936.94;;;2.13;100.00
71465;BME280;59274;49.874;9.154;2022-11-20T03:58:03;99928.56;;;2.15;100.00
71465;BME280;59274;49.874;9.154;2022-11-20T04:00:29;99926.69;;;2.15;100.00
71465;BME280;59274;49.874;9.154;2022-11-20T04:02:58;99925.59;;;2.16;100.00
71465;BME280;59274;49.874;9.154;2022-11-20T04:05:23;99924.31;;;2.14;100.00
71465;BME280;59274;49.874;9.154;2022-11-20T04:07:49;99924.59;;;2.21;100.00
71465;BME280;59274;49.874;9.154;2022-11-20T04:10:14;99930.44;;;2.23;100.00
71465;BME280;59274;49.874;9.154;2022-11-20T04:12:40;99931.50;;;2.30;100.00
71465;BME280;59274;49.874;9.154;2022-11-20T04:15:05;99922.53;;;2.26;100.00
71465;BME280;59274;49.874;9.154;2022-11-20T04:17:31;99935.75;;;2.31;100.00
71465;BME280;59274;49.874;9.154;2022-11-20T04:19:56;99935.28;;;2.29;100.00
71465;BME280;59274;49.874;9.154;2022-11-20T04:22:22;99934.22;;;2.22;100.00
71465;BME280;59274;49.874;9.154;2022-11-20T04:24:47;99929.44;;;2.27;100.00
71465;BME280;59274;49.874;9.154;2022-11-20T04:27:12;99924.25;;;2.31;100.00
71465;BME280;59274;49.874;9.154;2022-11-20T04:29:38;99932.56;;;2.38;100.00
71465;BME280;59274;49.874;9.154;2022-11-20T04:32:03;99926.13;;;2.30;100.00
71465;BME280;59274;49.874;9.154;2022-11-20T04:34:29;99918.38;;;2.38;100.00
71465;BME280;59274;49.874;9.154;2022-11-20T04:36:54;99920.06;;;2.42;100.00
71465;BME280;59274;49.874;9.154;2022-11-20T04:39:20;99921.84;;;2.38;100.00
71465;BME280;59274;49.874;9.154;2022-11-20T04:41:45;99913.47;;;2.40;100.00
71465;BME280;59274;49.874;9.154;2022-11-20T04:44:11;99920.78;;;2.51;100.00
71465;BME280;59274;49.874;9.154;2022-11-20T04:46:41;99923.22;;;2.44;100.00
71465;BME280;59274;49.874;9.154;2022-11-20T04:49:07;99927.19;;;2.38;100.00
71465;BME280;59274;49.874;9.154;2022-11-20T04:51:33;99937.28;;;2.41;100.00
71465;BME280;59274;49.874;9.154;2022-11-20T04:53:59;99935.69;;;2.40;100.00
71465;BME280;59274;49.874;9.154;2022-11-20T04:56:25;99931.75;;;2.38;100.00
71465;BME280;59274;49.874;9.154;2022-11-20T04:58:50;99928.97;;;2.34;100.00
71465;BME280;59274;49.874;9.154;2022-11-20T05:01:18;99915.69;;;2.38;100.00
71465;BME280;59274;49.874;9.154;2022-11-20T05:03:44;99910.13;;;2.43;100.00
71465;BME280;59274;49.874;9.154;2022-11-20T05:06:12;99905.25;;;2.45;100.00
71465;BME280;59274;49.874;9.154;2022-11-20T05:08:38;99903.53;;;2.40;100.00
71465;BME280;59274;49.874;9.154;2022-11-20T05:11:09;99893.34;;;2.54;100.00
71465;BME280;59274;49.874;9.154;2022-11-20T05:13:35;99896.03;;;2.54;100.00
71465;BME280;59274;49.874;9.154;2022-11-20T05:16:06;99890.00;;;2.57;100.00
71465;BME280;59274;49.874;9.154;2022-11-20T05:18:33;99883.69;;;2.62;100.00
71465;BME280;59274;49.874;9.154;2022-11-20T05:20:59;99881.63;;;2.59;100.00
71465;BME280;59274;49.874;9.154;2022-11-20T05:23:26;99875.19;;;2.60;100.00
71465;BME280;59274;49.874;9.154;2022-11-20T05:25:53;99891.25;;;2.60;100.00
71465;BME280;59274;49.874;9.154;2022-11-20T05:28:18;99904.47;;;2.65;100.00
71465;BME280;59274;49.874;9.154;2022-11-20T05:30:44;99891.19;;;2.68;100.00
71465;BME280;59274;49.874;9.154;2022-11-20T05:33:09;99894.91;;;2.76;100.00
71465;BME280;59274;49.874;9.154;2022-11-20T05:35:35;99906.22;;;2.61;100.00
71465;BME280;59274;49.874;9.154;2022-11-20T05:38:00;99910.22;;;2.55;100.00
71465;BME280;59274;49.874;9.154;2022-11-20T05:40:26;99903.56;;;2.61;100.00
71465;BME280;59274;49.874;9.154;2022-11-20T05:42:51;99902.75;;;2.60;100.00
71465;BME280;59274;49.874;9.154;2022-11-20T05:45:16;99899.94;;;2.57;100.00
71465;BME280;59274;49.874;9.154;2022-11-20T05:47:42;99898.31;;;2.64;100.00
71465;BME280;59274;49.874;9.154;2022-11-20T05:50:08;99906.34;;;2.64;100.00
71465;BME280;59274;49.874;9.154;2022-11-20T05:52:33;99899.09;;;2.65;100.00
71465;BME280;59274;49.874;9.154;2022-11-20T05:54:58;99897.19;;;2.65;100.00
71465;BME280;59274;49.874;9.154;2022-11-20T05:57:24;99892.88;;;2.73;100.00
71465;BME280;59274;49.874;9.154;2022-11-20T05:59:49;99897.53;;;2.64;100.00
71465;BME280;59274;49.874;9.154;2022-11-20T06:02:15;99894.06;;;2.63;100.00
71465;BME280;59274;49.874;9.154;2022-11-20T06:04:40;99891.78;;;2.53;100.00
71465;BME280;59274;49.874;9.154;2022-11-20T06:07:06;99882.63;;;2.54;100.00
71465;BME280;59274;49.874;9.154;2022-11-20T06:09:34;99882.75;;;2.58;100.00
71465;BME280;59274;49.874;9.154;2022-11-20T06:11:59;99880.84;;;2.58;100.00
71465;BME280;59274;49.874;9.154;2022-11-20T06:14:25;99883.34;;;2.63;100.00
71465;BME280;59274;49.874;9.154;2022-11-20T06:16:50;99889.94;;;2.66;100.00
71465;BME280;59274;49.874;9.154;2022-11-20T06:19:16;99897.88;;;2.62;100.00
71465;BME280;59274;49.874;9.154;2022-11-20T06:21:41;99895.84;;;2.59;100.00
71465;BME280;59274;49.874;9.154;2022-11-20T06:24:09;99889.16;;;2.65;100.00
71465;BME280;59274;49.874;9.154;2022-11-20T06:26:35;99899.09;;;2.65;100.00
71465;BME280;59274;49.874;9.154;2022-11-20T06:29:00;99899.50;;;2.75;100.00
71465;BME280;59274;49.874;9.154;2022-11-20T06:31:26;99894.78;;;2.72;100.00
71465;BME280;59274;49.874;9.154;2022-11-20T06:33:54;99888.94;;;2.70;100.00
71465;BME280;59274;49.874;9.154;2022-11-20T06:36:21;99893.13;;;2.80;100.00
71465;BME280;59274;49.874;9.154;2022-11-20T06:38:47;99883.41;;;2.75;100.00
71465;BME280;59274;49.874;9.154;2022-11-20T06:41:17;99892.41;;;2.71;100.00
71465;BME280;59274;49.874;9.154;2022-11-20T06:43:42;99898.50;;;2.80;100.00
71465;BME280;59274;49.874;9.154;2022-11-20T06:46:10;99900.66;;;2.87;100.00
71465;BME280;59274;49.874;9.154;2022-11-20T06:48:36;99903.78;;;2.89;100.00
71465;BME280;59274;49.874;9.154;2022-11-20T06:51:03;99921.00;;;2.88;100.00
71465;BME280;59274;49.874;9.154;2022-11-20T06:53:29;99918.44;;;2.70;100.00
71465;BME280;59274;49.874;9.154;2022-11-20T06:55:56;99910.28;;;2.67;100.00
71465;BME280;59274;49.874;9.154;2022-11-20T06:58:21;99903.66;;;2.64;100.00
71465;BME280;59274;49.874;9.154;2022-11-20T07:00:47;99899.81;;;2.74;100.00
71465;BME280;59274;49.874;9.154;2022-11-20T07:03:13;99893.88;;;2.68;100.00
71465;BME280;59274;49.874;9.154;2022-11-20T07:05:38;99904.41;;;2.73;100.00
71465;BME280;59274;49.874;9.154;2022-11-20T07:08:05;99911.06;;;2.67;100.00
71465;BME280;59274;49.874;9.154;2022-11-20T07:10:31;99910.53;;;2.74;100.00
71465;BME280;59274;49.874;9.154;2022-11-20T07:12:59;99919.91;;;2.68;100.00
71465;BME280;59274;49.874;9.154;2022-11-20T07:15:25;99921.47;;;2.69;100.00
71465;BME280;59274;49.874;9.154;2022-11-20T07:17:51;99917.34;;;2.71;100.00
71465;BME280;59274;49.874;9.154;2022-11-20T07:20:17;99920.00;;;2.71;100.00
71465;BME280;59274;49.874;9.154;2022-11-20T07:22:42;99921.59;;;2.72;100.00
71465;BME280;59274;49.874;9.154;2022-11-20T07:25:09;99926.56;;;2.83;100.00
71465;BME280;59274;49.874;9.154;2022-11-20T07:27:35;99933.34;;;2.80;100.00
71465;BME280;59274;49.874;9.154;2022-11-20T07:30:01;99933.34;;;2.80;100.00
71465;BME280;59274;49.874;9.154;2022-11-20T07:32:26;99922.09;;;2.87;100.00
71465;BME280;59274;49.874;9.154;2022-11-20T07:34:52;99919.88;;;2.89;100.00
71465;BME280;59274;49.874;9.154;2022-11-20T07:37:17;99910.53;;;2.95;100.00
71465;BME280;59274;49.874;9.154;2022-11-20T07:39:43;99917.41;;;2.84;100.00
71465;BME280;59274;49.874;9.154;2022-11-20T07:42:09;99919.69;;;2.94;100.00
71465;BME280;59274;49.874;9.154;2022-11-20T07:44:34;99921.81;;;3.00;100.00
71465;BME280;59274;49.874;9.154;2022-11-20T07:47:00;99919.69;;;2.94;100.00
71465;BME280;59274;49.874;9.154;2022-11-20T07:49:26;99928.50;;;2.94;100.00
71465;BME280;59274;49.874;9.154;2022-11-20T07:51:51;99919.22;;;2.92;100.00
71465;BME280;59274;49.874;9.154;2022-11-20T07:54:19;99909.88;;;2.98;100.00
71465;BME280;59274;49.874;9.154;2022-11-20T07:56:45;99913.59;;;3.05;100.00
71465;BME280;59274;49.874;9.154;2022-11-20T07:59:11;99911.41;;;2.99;100.00
71465;BME280;59274;49.874;9.154;2022-11-20T08:01:38;99909.41;;;2.96;100.00
71465;BME280;59274;49.874;9.154;2022-11-20T08:04:03;99905.31;;;2.98;100.00
71465;BME280;59274;49.874;9.154;2022-11-20T08:06:29;99921.28;;;3.07;100.00
71465;BME280;59274;49.874;9.154;2022-11-20T08:08:54;99916.06;;;3.10;100.00
71465;BME280;59274;49.874;9.154;2022-11-20T08:11:19;99928.09;;;3.25;100.00
71465;BME280;59274;49.874;9.154;2022-11-20T08:14:03;99924.69;;;3.16;100.00
71465;BME280;59274;49.874;9.154;2022-11-20T08:16:48;99926.25;;;3.17;100.00
71465;BME280;59274;49.874;9.154;2022-11-20T08:19:15;99914.97;;;3.11;100.00
71465;BME280;59274;49.874;9.154;2022-11-20T08:21:41;99911.97;;;3.25;100.00
71465;BME280;59274;49.874;9.154;2022-11-20T08:24:08;99917.13;;;3.30;100.00
71465;BME280;59274;49.874;9.154;2022-11-20T08:26:35;99931.63;;;3.17;100.00
71465;BME280;59274;49.874;9.154;2022-11-20T08:29:00;99931.56;;;3.26;100.00
71465;BME280;59274;49.874;9.154;2022-11-20T08:31:27;99944.38;;;3.20;100.00
71465;BME280;59274;49.874;9.154;2022-11-20T08:33:53;99958.16;;;3.31;100.00
71465;BME280;59274;49.874;9.154;2022-11-20T08:36:19;99953.19;;;3.21;100.00
71465;BME280;59274;49.874;9.154;2022-11-20T08:38:49;99958.47;;;3.17;100.00
71465;BME280;59274;49.874;9.154;2022-11-20T08:41:15;99956.59;;;2.97;100.00
71465;BME280;59274;49.874;9.154;2022-11-20T08:43:57;99957.09;;;3.11;100.00
71465;BME280;59274;49.874;9.154;2022-11-20T08:46:25;99969.50;;;3.15;100.00
71465;BME280;59274;49.874;9.154;2022-11-20T08:48:51;99964.69;;;3.09;100.00
71465;BME280;59274;49.874;9.154;2022-11-20T08:51:18;99957.28;;;3.06;100.00
71465;BME280;59274;49.874;9.154;2022-11-20T08:53:44;99965.00;;;3.07;100.00
71465;BME280;59274;49.874;9.154;2022-11-20T08:56:10;99964.94;;;3.16;100.00
71465;BME280;59274;49.874;9.154;2022-11-20T08:58:35;99960.69;;;3.15;100.00
71465;BME280;59274;49.874;9.154;2022-11-20T09:01:02;99962.28;;;3.28;100.00
71465;BME280;59274;49.874;9.154;2022-11-20T09:03:27;99961.44;;;3.36;100.00
71465;BME280;59274;49.874;9.154;2022-11-20T09:05:59;99960.22;;;3.34;100.00
71465;BME280;59274;49.874;9.154;2022-11-20T09:08:25;99969.75;;;3.55;100.00
71465;BME280;59274;49.874;9.154;2022-11-20T09:10:52;99966.63;;;3.53;100.00
71465;BME280;59274;49.874;9.154;2022-11-20T09:13:19;99971.25;;;3.65;100.00
71465;BME280;59274;49.874;9.154;2022-11-20T09:15:44;99973.53;;;3.75;100.00
71465;BME280;59274;49.874;9.154;2022-11-20T09:18:10;99961.34;;;3.90;100.00
71465;BME280;59274;49.874;9.154;2022-11-20T09:20:35;99968.31;;;4.03;100.00
71465;BME280;59274;49.874;9.154;2022-11-20T09:23:01;99967.19;;;4.04;100.00
71465;BME280;59274;49.874;9.154;2022-11-20T09:25:26;99966.50;;;4.07;100.00
71465;BME280;59274;49.874;9.154;2022-11-20T09:27:56;99968.75;;;4.17;100.00
71465;BME280;59274;49.874;9.154;2022-11-20T09:30:22;99968.66;;;4.26;100.00
71465;BME280;59274;49.874;9.154;2022-11-20T09:32:47;99969.75;;;4.25;100.00
71465;BME280;59274;49.874;9.154;2022-11-20T09:35:12;99965.41;;;4.32;100.00
71465;BME280;59274;49.874;9.154;2022-11-20T09:37:40;99960.56;;;4.38;100.00
71465;BME280;59274;49.874;9.154;2022-11-20T09:40:06;99956.19;;;4.46;100.00
71465;BME280;59274;49.874;9.154;2022-11-20T09:42:41;99964.47;;;4.53;100.00
71465;BME280;59274;49.874;9.154;2022-11-20T09:45:18;99958.41;;;4.56;100.00
71465;BME280;59274;49.874;9.154;2022-11-20T09:47:50;99959.00;;;4.61;100.00
71465;BME280;59274;49.874;9.154;2022-11-20T09:56:09;99956.19;;;4.58;100.00
71465;BME280;59274;49.874;9.154;2022-11-20T09:58:44;99959.41;;;4.63;100.00
71465;BME280;59274;49.874;9.154;2022-11-20T10:01:16;99954.03;;;4.63;100.00
71465;BME280;59274;49.874;9.154;2022-11-20T10:03:49;99959.16;;;4.81;100.00
71465;BME280;59274;49.874;9.154;2022-11-20T10:06:18;99947.50;;;4.89;100.00
71465;BME280;59274;49.874;9.154;2022-11-20T10:08:51;99948.06;;;4.82;100.00
71465;BME280;59274;49.874;9.154;2022-11-20T10:12:06;99945.84;;;4.72;100.00
71465;BME280;59274;49.874;9.154;2022-11-20T10:17:08;99939.25;;;4.97;100.00
71465;BME280;59274;49.874;9.154;2022-11-20T10:20:07;99940.69;;;5.07;100.00
71465;BME280;59274;49.874;9.154;2022-11-20T10:25:19;99935.53;;;4.74;100.00
71465;BME280;59274;49.874;9.154;2022-11-20T10:30:21;99937.69;;;4.56;100.00
71465;BME280;59274;49.874;9.154;2022-11-20T10:32:52;99931.06;;;4.66;100.00
71465;BME280;59274;49.874;9.154;2022-11-20T10:38:10;99930.06;;;4.58;100.00
71465;BME280;59274;49.874;9.154;2022-11-20T10:40:41;99935.56;;;4.50;100.00
71465;BME280;59274;49.874;9.154;2022-11-20T10:45:36;99941.19;;;4.45;100.00
71465;BME280;59274;49.874;9.154;2022-11-20T10:48:21;99932.22;;;4.53;100.00
71465;BME280;59274;49.874;9.154;2022-11-20T10:51:13;99925.25;;;4.52;100.00
71465;BME280;59274;49.874;9.154;2022-11-20T10:56:42;99930.09;;;4.46;100.00
71465;BME280;59274;49.874;9.154;2022-11-20T10:59:35;99930.84;;;4.59;100.00
71465;BME280;59274;49.874;9.154;2022-11-20T11:02:19;99925.88;;;4.73;100.00
71465;BME280;59274;49.874;9.154;2022-11-20T11:04:52;99918.81;;;4.81;100.00
71465;BME280;59274;49.874;9.154;2022-11-20T11:07:30;99921.53;;;4.68;100.00
71465;BME280;59274;49.874;9.154;2022-11-20T11:10:00;99919.84;;;4.64;100.00
71465;BME280;59274;49.874;9.154;2022-11-20T11:12:27;99914.81;;;4.75;100.00
71465;BME280;59274;49.874;9.154;2022-11-20T11:14:55;99919.41;;;4.74;100.00
71465;BME280;59274;49.874;9.154;2022-11-20T11:17:29;99917.50;;;4.75;100.00
71465;BME280;59274;49.874;9.154;2022-11-20T11:22:33;99918.06;;;4.68;100.00
71465;BME280;59274;49.874;9.154;2022-11-20T11:24:59;99903.84;;;4.67;100.00
71465;BME280;59274;49.874;9.154;2022-11-20T11:27:25;99901.34;;;4.75;100.00
71465;BME280;59274;49.874;9.154;2022-11-20T11:30:02;99899.88;;;4.77;100.00
71465;BME280;59274;49.874;9.154;2022-11-20T11:32:28;99900.97;;;4.76;100.00
71465;BME280;59274;49.874;9.154;2022-11-20T11:35:05;99891.25;;;4.71;100.00
71465;BME280;59274;49.874;9.154;2022-11-20T11:37:36;99886.00;;;4.75;100.00
71465;BME280;59274;49.874;9.154;2022-11-20T11:40:06;99881.47;;;4.79;100.00
71465;BME280;59274;49.874;9.154;2022-11-20T11:42:42;99876.56;;;4.81;100.00
71465;BME280;59274;49.874;9.154;2022-11-20T11:45:14;99876.44;;;4.78;100.00
71465;BME280;59274;49.874;9.154;2022-11-20T11:50:21;99869.69;;;4.84;100.00
71465;BME280;59274;49.874;9.154;2022-11-20T11:53:07;99871.78;;;4.90;100.00
71465;BME280;59274;49.874;9.154;2022-11-20T11:56:02;99879.53;;;4.92;100.00
71465;BME280;59274;49.874;9.154;2022-11-20T12:04:19;99870.84;;;4.83;100.00
71465;BME280;59274;49.874;9.154;2022-11-20T12:07:19;99868.81;;;4.80;100.00
71465;BME280;59274;49.874;9.154;2022-11-20T12:09:49;99879.25;;;4.81;100.00
71465;BME280;59274;49.874;9.154;2022-11-20T12:12:21;99877.56;;;4.77;100.00
71465;BME280;59274;49.874;9.154;2022-11-20T12:14:48;99882.53;;;4.75;100.00
71465;BME280;59274;49.874;9.154;2022-11-20T12:17:16;99870.78;;;4.67;100.00
71465;BME280;59274;49.874;9.154;2022-11-20T12:19:43;99876.56;;;4.69;100.00
71465;BME280;59274;49.874;9.154;2022-11-20T12:27:14;99872.50;;;4.87;100.00
71465;BME280;59274;49.874;9.154;2022-11-20T12:32:22;99861.13;;;4.94;100.00
71465;BME280;59274;49.874;9.154;2022-11-20T12:35:10;99856.72;;;5.01;100.00
71465;BME280;59274;49.874;9.154;2022-11-20T12:48:50;99850.50;;;5.13;100.00
71465;BME280;59274;49.874;9.154;2022-11-20T12:59:28;99849.53;;;5.05;100.00
71465;BME280;59274;49.874;9.154;2022-11-20T13:02:12;99843.50;;;5.24;100.00
71465;BME280;59274;49.874;9.154;2022-11-20T13:07:42;99846.44;;;5.35;100.00
71465;BME280;59274;49.874;9.154;2022-11-20T13:10:26;99858.88;;;5.24;100.00
71465;BME280;59274;49.874;9.154;2022-11-20T13:13:10;99853.75;;;5.19;100.00
71465;BME280;59274;49.874;9.154;2022-11-20T13:15:45;99848.44;;;5.22;100.00
71465;BME280;59274;49.874;9.154;2022-11-20T13:18:14;99836.84;;;5.06;100.00
71465;BME280;59274;49.874;9.154;2022-11-20T13:20:44;99840.09;;;5.27;100.00
71465;BME280;59274;49.874;9.154;2022-11-20T13:23:10;99829.44;;;5.31;100.00
71465;BME280;59274;49.874;9.154;2022-11-20T13:25:38;99821.78;;;5.48;100.00
71465;BME280;59274;49.874;9.154;2022-11-20T13:28:27;99815.03;;;5.39;100.00
71465;BME280;59274;49.874;9.154;2022-11-20T13:30:55;99820.56;;;5.30;100.00
71465;BME280;59274;49.874;9.154;2022-11-20T13:33:35;99822.03;;;5.28;100.00
71465;BME280;59274;49.874;9.154;2022-11-20T13:36:22;99814.84;;;5.32;100.00
71465;BME280;59274;49.874;9.154;2022-11-20T13:38:50;99821.97;;;5.24;100.00
71465;BME280;59274;49.874;9.154;2022-11-20T13:41:42;99824.13;;;5.19;100.00
71465;BME280;59274;49.874;9.154;2022-11-20T13:46:53;99812.31;;;5.23;100.00
71465;BME280;59274;49.874;9.154;2022-11-20T13:50:00;99807.00;;;5.11;100.00
71465;BME280;59274;49.874;9.154;2022-11-20T14:00:24;99788.34;;;5.49;100.00
71465;BME280;59274;49.874;9.154;2022-11-20T14:05:32;99775.88;;;5.76;100.00
71465;BME280;59274;49.874;9.154;2022-11-20T14:08:03;99776.66;;;5.77;100.00
71465;BME280;59274;49.874;9.154;2022-11-20T14:10:29;99777.38;;;5.89;100.00
71465;BME280;59274;49.874;9.154;2022-11-20T14:12:55;99784.66;;;5.89;100.00
71465;BME280;59274;49.874;9.154;2022-11-20T14:15:30;99785.00;;;5.87;100.00
71465;BME280;59274;49.874;9.154;2022-11-20T14:17:56;99778.22;;;5.94;100.00
71465;BME280;59274;49.874;9.154;2022-11-20T14:20:26;99770.47;;;5.92;100.00
71465;BME280;59274;49.874;9.154;2022-11-20T14:22:53;99771.97;;;5.89;100.00
71465;BME280;59274;49.874;9.154;2022-11-20T14:27:54;99781.47;;;5.68;100.00
71465;BME280;59274;49.874;9.154;2022-11-20T14:30:23;99773.78;;;5.70;100.00
71465;BME280;59274;49.874;9.154;2022-11-20T14:32:49;99785.47;;;5.58;100.00